Lassance, Brazil
Current Conditions -  °F | °C
As of 2:20 PM on Sunday 21 Dec 2014 (Local Time) from SBMK Reporting Station
Thunderstorm Thunderstorm  
Wind Chill: 82°   Ceiling: 10000
Heat Index: 85°   Visibility: 6mi
Dew Point: 68°   Wind: 6mph
Humidity: 62%   Direction: 10°N
Pressure: 30"   Gusts: NA
Location:  17.89°S, 44.58°W
Report Text: SBMK 211620Z 01005KT 9999 TS VCSH FEW015 SCT025 FEW030CB BKN10028/20 Q1016
Loading
Personal Weather Stations






























Interactive Weather Map New forecast layout! Learn more

10-Day Weather Forecast

Advertisements
Track Severe Weather on mobile